Site-Specific Table for Stillwater
(NFDRS Fuel Model T - Tallgrass with brush)
DATE TIME TAIR RELH WSPD RAIN_24H BI SC ERC IC 1-HR 10-HR 100-HR 1000-HR HERB WOODY KBDI
Wed Mar 29, 2017 11:00 pm CDT 48°F 80% 13 mph 0.79 in. 0 0 0 0% 15% 18% 17% 10% 106% 116% 50
Wed Mar 29, 2017 10:00 pm CDT 49°F 77% 12 mph 1.47 in. 2 3 0 1% 14% 18% 17% 10% 106% 116% 50
Wed Mar 29, 2017 9:00 pm CDT 50°F 76% 14 mph 1.51 in. 5 7 0 2% 13% 18% 17% 10% 106% 116% 50
Wed Mar 29, 2017 8:00 pm CDT 51°F 76% 14 mph 1.54 in. 8 10 1 3% 13% 18% 17% 10% 106% 116% 50
Wed Mar 29, 2017 7:00 pm CDT 54°F 71% 18 mph 1.55 in. 14 17 2 6% 11% 18% 17% 10% 106% 116% 50
Wed Mar 29, 2017 6:00 pm CDT 57°F 68% 20 mph 1.55 in. 16 21 2 8% 11% 19% 17% 10% 106% 116% 50
Wed Mar 29, 2017 5:00 pm CDT 61°F 65% 17 mph 1.55 in. 12 16 1 7% 11% 21% 17% 9% 106% 116% 50
Wed Mar 29, 2017 4:00 pm CDT 62°F 70% 14 mph 1.55 in. 0 9 0 3% 13% 24% 17% 9% 106% 116% 182
Wed Mar 29, 2017 3:00 pm CDT 61°F 75% 14 mph 1.55 in. 0 0 0 0% 15% 28% 17% 9% 106% 116% 182
Wed Mar 29, 2017 2:00 pm CDT 57°F 91% 11 mph 1.55 in. 0 0 0 0% 20% 33% 18% 10% 106% 116% 182
Wed Mar 29, 2017 1:00 pm CDT 57°F 93% 12 mph 1.55 in. 0 0 0 0% 25% 37% 19% 10% 106% 116% 182
Wed Mar 29, 2017 12:00 pm CDT 56°F 98% 9 mph 1.55 in. 0 0 0 0% 30% 41% 19% 10% 106% 116% 182
Wed Mar 29, 2017 11:00 am CDT 55°F 99% 10 mph 1.55 in. 0 0 0 0% 32% 44% 20% 10% 106% 116% 182
Wed Mar 29, 2017 10:00 am CDT 55°F 100% 8 mph 1.55 in. 0 0 0 0% 39% 49% 21% 12% 106% 116% 182
Wed Mar 29, 2017 9:00 am CDT 55°F 100% 8 mph 1.55 in. 0 0 0 0% 85% 56% 21% 12% 106% 116% 182
Wed Mar 29, 2017 8:00 am CDT 54°F 100% 3 mph 1.55 in. 0 0 0 0% 85% 56% 21% 12% 106% 116% 182
Wed Mar 29, 2017 7:00 am CDT 54°F 100% 8 mph 1.55 in. 0 0 0 0% 85% 56% 21% 12% 106% 116% 182
Wed Mar 29, 2017 6:00 am CDT 53°F 100% 0 mph 1.50 in. 0 0 0 0% 85% 55% 20% 12% 106% 116% 182
Wed Mar 29, 2017 5:00 am CDT 53°F 100% 3 mph 1.42 in. 0 0 0 0% 85% 54% 19% 12% 106% 116% 182
Wed Mar 29, 2017 4:00 am CDT 53°F 100% 6 mph 1.20 in. 0 0 0 0% 85% 57% 21% 13% 106% 116% 182
DATE TIME TAIR RELH WSPD RAIN_24H BI SC ERC IC 1-HR 10-HR 100-HR 1000-HR HERB WOODY KBDI
Wed Mar 29, 2017 3:00 am CDT 54°F 99% 3 mph 1.10 in. 0 0 0 0% 85% 55% 20% 13% 106% 116% 182
Wed Mar 29, 2017 2:00 am CDT 54°F 100% 2 mph 0.99 in. 0 0 0 0% 85% 49% 17% 12% 106% 116% 182
Wed Mar 29, 2017 1:00 am CDT 54°F 100% 5 mph 0.95 in. 0 0 0 0% 85% 45% 17% 12% 106% 116% 182
Wed Mar 29, 2017 12:00 am CDT 54°F 99% 12 mph 0.85 in. 0 0 0 0% 85% 41% 16% 12% 106% 116% 182
Tue Mar 28, 2017 11:00 pm CDT 57°F 100% 14 mph 0.76 in. 0 0 0 0% 85% 39% 16% 12% 106% 116% 182